createdAt,value
2022-11-12T00:01:23.635Z,68.80
2022-11-12T00:04:09.450Z,68.80
2022-11-12T00:06:54.742Z,69.00
2022-11-12T00:09:40.404Z,68.70
2022-11-12T00:12:25.725Z,68.80
2022-11-12T00:15:11.622Z,68.90
2022-11-12T00:17:57.234Z,68.90
2022-11-12T00:20:42.938Z,69.00
2022-11-12T00:23:28.398Z,69.00
2022-11-12T00:26:13.834Z,68.90
2022-11-12T00:28:59.147Z,68.90
2022-11-12T00:31:44.652Z,69.00
2022-11-12T00:34:30.199Z,69.10
2022-11-12T00:37:16.806Z,69.20
2022-11-12T00:40:02.011Z,69.00
2022-11-12T00:42:47.749Z,69.10
2022-11-12T00:45:33.393Z,69.10
2022-11-12T00:48:19.866Z,69.10
2022-11-12T00:51:06.373Z,69.00
2022-11-12T00:53:52.033Z,69.00
2022-11-12T00:56:39.076Z,69.00
2022-11-12T00:59:24.649Z,69.20
2022-11-12T01:02:10.214Z,69.20
2022-11-12T01:04:55.629Z,69.10
2022-11-12T01:07:41.499Z,69.10
2022-11-12T01:13:58.618Z,69.20
2022-11-12T01:16:44.489Z,69.40
2022-11-12T01:19:30.098Z,69.30
2022-11-12T01:22:15.742Z,69.20
2022-11-12T01:25:01.547Z,69.10
2022-11-12T01:27:46.906Z,69.40
2022-11-12T01:30:32.368Z,69.30
2022-11-12T01:33:17.799Z,69.40
2022-11-12T01:36:03.116Z,69.40
2022-11-12T01:38:48.752Z,69.30
2022-11-12T01:41:36.077Z,69.20
2022-11-12T01:44:23.106Z,69.10
2022-11-12T01:47:11.362Z,69.30
2022-11-12T01:50:01.026Z,69.40
2022-11-12T01:52:52.014Z,69.40
2022-11-12T01:55:37.728Z,69.30
2022-11-12T01:58:25.032Z,69.40
2022-11-12T02:01:10.968Z,69.70
2022-11-12T02:03:56.609Z,69.50
2022-11-12T02:06:42.328Z,69.50
2022-11-12T02:09:35.693Z,69.40
2022-11-12T02:12:39.605Z,69.60
2022-11-12T02:15:25.946Z,69.50
2022-11-12T02:18:11.456Z,69.50
2022-11-12T02:20:58.198Z,69.60
2022-11-12T02:23:43.428Z,69.60
2022-11-12T02:26:34.011Z,69.50
2022-11-12T02:29:19.560Z,69.70
2022-11-12T02:32:05.215Z,69.70
2022-11-12T02:34:50.690Z,69.70
2022-11-12T02:37:36.344Z,69.60
2022-11-12T02:40:21.816Z,69.70
2022-11-12T02:43:07.111Z,69.80
2022-11-12T02:46:00.010Z,69.60
2022-11-12T02:48:48.110Z,69.90
2022-11-12T02:51:33.650Z,69.70
2022-11-12T02:54:20.003Z,69.50
2022-11-12T02:57:05.695Z,69.40
2022-11-12T02:59:51.207Z,69.40
2022-11-12T03:02:42.955Z,69.40
2022-11-12T03:05:30.307Z,69.50
2022-11-12T03:08:15.591Z,69.40
2022-11-12T03:11:09.201Z,69.40
2022-11-12T03:13:54.894Z,69.70
2022-11-12T03:16:40.521Z,69.60
2022-11-12T03:19:27.626Z,69.60
2022-11-12T03:22:13.135Z,69.40
2022-11-12T03:25:00.988Z,69.60
2022-11-12T03:27:47.674Z,69.60
2022-11-12T03:30:34.930Z,69.60
2022-11-12T03:33:20.576Z,69.60
2022-11-12T03:36:06.415Z,69.40
2022-11-12T03:38:51.827Z,69.50
2022-11-12T03:41:37.236Z,69.40
2022-11-12T03:44:22.754Z,69.40
2022-11-12T03:47:08.490Z,69.40
2022-11-12T03:49:53.974Z,69.40
2022-11-12T03:52:39.455Z,69.40
2022-11-12T03:55:26.220Z,69.40
2022-11-12T03:58:11.885Z,69.30
2022-11-12T04:00:57.565Z,69.30
2022-11-12T04:03:43.446Z,69.20
2022-11-12T04:06:47.925Z,69.30
2022-11-12T04:09:33.498Z,69.20
2022-11-12T04:12:37.572Z,69.20
2022-11-12T04:15:22.944Z,69.40
2022-11-12T04:18:27.396Z,69.10
2022-11-12T04:21:33.705Z,69.20
2022-11-12T04:24:45.827Z,69.10
2022-11-12T04:27:33.002Z,69.30
2022-11-12T04:30:19.499Z,69.20
2022-11-12T04:33:05.038Z,69.40
2022-11-12T04:35:50.408Z,69.60
2022-11-12T04:38:35.706Z,69.20
2022-11-12T04:41:40.020Z,69.30
2022-11-12T04:44:44.499Z,69.30
2022-11-12T04:47:31.256Z,69.40
2022-11-12T04:50:18.169Z,69.40
2022-11-12T04:53:04.728Z,69.50
2022-11-12T04:55:51.526Z,69.40
2022-11-12T04:58:36.705Z,69.40
2022-11-12T05:01:22.324Z,69.70
2022-11-12T05:04:08.193Z,69.30
2022-11-12T05:06:54.568Z,69.30
2022-11-12T05:09:40.455Z,69.30
2022-11-12T05:12:26.075Z,69.10
2022-11-12T05:15:14.140Z,69.50
2022-11-12T05:17:59.455Z,69.50
2022-11-12T05:20:44.806Z,69.40
2022-11-12T05:23:30.612Z,69.70
2022-11-12T05:26:15.962Z,69.50
2022-11-12T05:29:04.943Z,69.60
2022-11-12T05:31:53.095Z,69.80
2022-11-12T05:34:38.875Z,69.40
2022-11-12T05:37:24.141Z,69.70
2022-11-12T05:40:10.157Z,69.50
2022-11-12T05:42:58.269Z,69.40
2022-11-12T05:45:44.029Z,69.20
2022-11-12T05:48:29.641Z,69.10
2022-11-12T05:51:15.581Z,69.10
2022-11-12T05:54:01.210Z,69.40
2022-11-12T05:56:46.653Z,69.20
2022-11-12T05:59:31.995Z,69.20
2022-11-12T06:02:17.564Z,69.10
2022-11-12T06:05:03.438Z,69.20
2022-11-12T06:07:48.725Z,69.20
2022-11-12T06:10:34.119Z,69.60
2022-11-12T06:13:20.440Z,69.30
2022-11-12T06:16:06.055Z,69.20
2022-11-12T06:18:51.623Z,69.00
2022-11-12T06:21:37.183Z,69.20
2022-11-12T06:24:22.882Z,69.20
2022-11-12T06:27:08.529Z,69.20
2022-11-12T06:29:53.856Z,69.40
2022-11-12T06:32:39.513Z,69.30
2022-11-12T06:35:25.098Z,69.10
2022-11-12T06:38:10.464Z,68.80
2022-11-12T06:40:56.517Z,68.50
2022-11-12T06:43:42.304Z,68.70
2022-11-12T06:46:27.639Z,68.60
2022-11-12T06:49:13.223Z,68.70
2022-11-12T06:51:58.751Z,68.50
2022-11-12T06:54:46.460Z,68.60
2022-11-12T06:57:32.418Z,68.30
2022-11-12T07:00:18.355Z,68.10
2022-11-12T07:03:07.916Z,68.30
2022-11-12T07:05:55.064Z,67.90
2022-11-12T07:08:41.123Z,67.80
2022-11-12T07:11:26.520Z,67.70
2022-11-12T07:14:12.258Z,67.70
2022-11-12T07:16:57.625Z,67.50
2022-11-12T07:19:42.832Z,67.50
2022-11-12T07:22:28.302Z,67.60
2022-11-12T07:25:13.619Z,67.50
2022-11-12T07:27:59.259Z,67.70
2022-11-12T07:30:44.834Z,67.20
2022-11-12T07:33:30.567Z,66.90
2022-11-12T07:36:17.544Z,67.20
2022-11-12T07:39:03.082Z,67.50
2022-11-12T07:41:48.610Z,67.60
2022-11-12T07:44:33.979Z,66.80
2022-11-12T07:47:19.379Z,67.00
2022-11-12T07:50:05.070Z,66.50
2022-11-12T07:52:50.484Z,66.40
2022-11-12T07:55:36.110Z,66.00
2022-11-12T07:58:21.569Z,65.50
2022-11-12T08:01:11.886Z,65.30
2022-11-12T08:04:01.497Z,65.10
2022-11-12T08:06:47.339Z,65.10
2022-11-12T08:09:33.616Z,64.90
2022-11-12T08:12:18.931Z,65.10
2022-11-12T08:15:06.424Z,64.80
2022-11-12T08:17:52.161Z,64.50
2022-11-12T08:20:38.105Z,64.40
2022-11-12T08:23:23.811Z,64.10
2022-11-12T08:26:11.017Z,63.70
2022-11-12T08:28:56.794Z,63.60
2022-11-12T08:31:42.145Z,63.80
2022-11-12T08:34:27.602Z,63.10
2022-11-12T08:37:13.526Z,63.00
2022-11-12T08:39:59.073Z,63.00
2022-11-12T08:42:44.755Z,62.80
2022-11-12T08:45:31.552Z,62.50
2022-11-12T08:48:17.088Z,62.30
2022-11-12T08:51:03.778Z,62.00
2022-11-12T08:53:49.166Z,61.70
2022-11-12T08:56:34.718Z,61.50
2022-11-12T08:59:20.211Z,61.80
2022-11-12T09:02:06.753Z,61.70
2022-11-12T09:04:52.137Z,61.80
2022-11-12T09:07:53.045Z,61.60
2022-11-12T09:10:39.456Z,61.30
2022-11-12T09:13:25.310Z,60.90
2022-11-12T09:16:11.106Z,60.90
2022-11-12T09:18:56.481Z,60.80
2022-11-12T09:21:42.125Z,60.70
2022-11-12T09:24:27.509Z,60.40
2022-11-12T09:27:13.134Z,60.30
2022-11-12T09:29:58.387Z,60.10
2022-11-12T09:32:43.896Z,60.10
2022-11-12T09:35:29.999Z,59.90
2022-11-12T09:38:15.610Z,59.40
2022-11-12T09:41:01.190Z,59.20
2022-11-12T09:43:52.053Z,58.20
2022-11-12T09:46:45.244Z,57.40
2022-11-12T09:49:36.980Z,56.50
2022-11-12T09:52:27.291Z,56.50
2022-11-12T09:55:44.173Z,55.30
2022-11-12T09:58:29.792Z,54.50
2022-11-12T10:01:35.586Z,55.20
2022-11-12T10:04:38.315Z,55.10
2022-11-12T10:07:32.447Z,54.80
2022-11-12T10:10:25.152Z,55.30
2022-11-12T10:13:31.670Z,55.30
2022-11-12T10:16:44.827Z,55.10
2022-11-12T10:19:55.394Z,55.40
2022-11-12T10:22:43.412Z,55.30
2022-11-12T10:25:29.596Z,55.30
2022-11-12T10:28:21.346Z,55.10
2022-11-12T10:31:17.422Z,54.80
2022-11-12T10:34:20.159Z,54.80
2022-11-12T10:37:10.670Z,54.60
2022-11-12T10:39:56.136Z,54.60
2022-11-12T10:43:06.800Z,54.70
2022-11-12T10:45:52.295Z,54.80
2022-11-12T10:48:37.579Z,54.80
2022-11-12T10:51:28.661Z,54.70
2022-11-12T10:54:22.533Z,54.40
2022-11-12T10:57:21.560Z,54.40
2022-11-12T11:00:09.317Z,54.50
2022-11-12T11:02:54.953Z,54.30
2022-11-12T11:06:01.267Z,54.60
2022-11-12T11:08:51.029Z,54.40
2022-11-12T11:11:36.865Z,54.50
2022-11-12T11:14:22.388Z,54.90
2022-11-12T11:17:16.927Z,54.90
2022-11-12T11:20:04.870Z,54.60
2022-11-12T11:23:11.608Z,54.90
2022-11-12T11:25:58.110Z,54.80
2022-11-12T11:29:14.098Z,54.90
2022-11-12T11:32:07.656Z,54.80
2022-11-12T11:35:11.790Z,55.10
2022-11-12T11:38:28.033Z,55.00
2022-11-12T11:41:58.518Z,55.10
2022-11-12T11:45:02.688Z,55.20
2022-11-12T11:48:02.113Z,55.40
2022-11-12T11:51:32.977Z,55.20
2022-11-12T11:54:41.005Z,55.40
2022-11-12T11:57:33.901Z,55.30
2022-11-12T12:00:20.912Z,55.30
2022-11-12T12:03:16.959Z,55.20
2022-11-12T12:06:56.681Z,55.00
2022-11-12T12:10:11.493Z,55.20
2022-11-12T12:13:11.002Z,55.20
2022-11-12T12:16:25.863Z,55.10
2022-11-12T12:19:26.556Z,55.30
2022-11-12T12:22:24.646Z,55.30
2022-11-12T12:25:15.078Z,55.40
2022-11-12T12:28:10.777Z,55.40
2022-11-12T12:30:58.777Z,55.40
2022-11-12T12:33:49.930Z,55.40
2022-11-12T12:36:40.705Z,55.50
2022-11-12T12:39:30.215Z,55.40
2022-11-12T12:42:26.890Z,55.40
2022-11-12T12:45:38.344Z,55.30
2022-11-12T12:48:38.640Z,55.30
2022-11-12T12:51:24.023Z,55.30
2022-11-12T12:54:54.642Z,55.50
2022-11-12T12:57:40.084Z,55.40
2022-11-12T13:00:39.339Z,55.60
2022-11-12T13:03:44.874Z,55.70
2022-11-12T13:06:34.934Z,55.50
2022-11-12T13:09:24.323Z,55.40
2022-11-12T13:12:10.087Z,55.30
2022-11-12T13:15:43.542Z,55.50
2022-11-12T13:18:38.108Z,55.40
2022-11-12T13:21:23.737Z,55.30
2022-11-12T13:24:12.537Z,55.50
2022-11-12T13:26:59.298Z,55.40
2022-11-12T13:29:45.849Z,55.20
2022-11-12T13:32:48.737Z,55.10
2022-11-12T13:35:40.643Z,55.30
2022-11-12T13:38:27.288Z,55.70
2022-11-12T13:41:39.918Z,55.20
2022-11-12T13:44:25.616Z,55.20
2022-11-12T13:47:13.886Z,55.10
2022-11-12T13:50:00.320Z,54.00
2022-11-12T13:52:45.911Z,53.90
2022-11-12T13:55:34.257Z,53.90
2022-11-12T13:58:26.158Z,54.10
2022-11-12T14:01:11.844Z,53.90
2022-11-12T14:03:57.877Z,54.00
2022-11-12T14:06:45.747Z,53.80
2022-11-12T14:09:50.967Z,54.20
2022-11-12T14:12:45.319Z,53.90
2022-11-12T14:15:33.720Z,54.90
2022-11-12T14:18:47.261Z,54.60
2022-11-12T14:21:33.635Z,54.30
2022-11-12T14:24:19.078Z,54.10
2022-11-12T14:27:04.654Z,53.90
2022-11-12T14:29:58.606Z,53.80
2022-11-12T14:32:46.118Z,53.90
2022-11-12T14:35:36.511Z,54.20
2022-11-12T14:38:26.504Z,54.20
2022-11-12T14:41:24.294Z,54.10
2022-11-12T14:44:14.898Z,54.30
2022-11-12T14:47:00.737Z,54.20
2022-11-12T14:49:47.749Z,54.40
2022-11-12T14:52:35.894Z,54.40
2022-11-12T14:55:27.688Z,54.30
2022-11-12T14:58:16.903Z,54.50
2022-11-12T15:04:54.668Z,54.70
2022-11-12T15:08:01.462Z,54.90
2022-11-12T15:10:47.007Z,55.00
2022-11-12T15:13:38.429Z,55.60
2022-11-12T15:16:28.792Z,55.50
2022-11-12T15:19:17.439Z,55.90
2022-11-12T15:22:02.985Z,56.40
2022-11-12T15:24:49.689Z,56.40
2022-11-12T15:27:38.224Z,56.80
2022-11-12T15:30:28.676Z,57.40
2022-11-12T15:33:15.720Z,57.30
2022-11-12T15:36:01.618Z,57.70
2022-11-12T15:38:48.827Z,58.00
2022-11-12T15:41:35.457Z,58.20
2022-11-12T15:44:21.277Z,58.30
2022-11-12T15:47:08.352Z,58.40
2022-11-12T15:49:57.237Z,58.70
2022-11-12T15:52:43.051Z,58.80
2022-11-12T15:55:31.031Z,59.00
2022-11-12T15:58:30.444Z,59.40
2022-11-12T16:01:17.067Z,59.70
2022-11-12T16:04:06.025Z,60.00
2022-11-12T16:06:51.488Z,60.00
2022-11-12T16:09:39.074Z,60.20
2022-11-12T16:12:27.457Z,60.50
2022-11-12T16:15:31.300Z,60.70
2022-11-12T16:18:20.067Z,61.10
2022-11-12T16:21:08.073Z,61.00
2022-11-12T16:23:56.931Z,61.20
2022-11-12T16:26:43.852Z,61.20
2022-11-12T16:29:53.234Z,61.30
2022-11-12T16:32:42.570Z,61.40
2022-11-12T16:35:34.310Z,61.70
2022-11-12T16:38:27.039Z,62.10
2022-11-12T16:41:14.378Z,62.00
2022-11-12T16:44:03.805Z,62.00
2022-11-12T16:46:59.419Z,62.10
2022-11-12T16:49:46.290Z,62.30
2022-11-12T16:52:34.929Z,62.60
2022-11-12T16:55:23.615Z,62.70
2022-11-12T16:58:13.896Z,62.70
2022-11-12T17:00:59.136Z,62.90
2022-11-12T17:03:44.486Z,62.70
2022-11-12T17:06:42.709Z,63.00
2022-11-12T17:09:31.164Z,63.50
2022-11-12T17:12:16.750Z,63.40
2022-11-12T17:15:02.171Z,63.70
2022-11-12T17:17:47.358Z,63.90
2022-11-12T17:20:33.995Z,63.80
2022-11-12T17:23:19.557Z,63.60
2022-11-12T17:26:06.454Z,63.60
2022-11-12T17:29:00.091Z,63.70
2022-11-12T17:31:49.187Z,63.70
2022-11-12T17:34:40.089Z,63.10
2022-11-12T17:37:28.657Z,63.80
2022-11-12T17:40:14.203Z,64.20
2022-11-12T17:42:59.703Z,63.80
2022-11-12T17:45:51.833Z,63.80
2022-11-12T17:48:37.735Z,63.80
2022-11-12T17:51:24.629Z,63.90
2022-11-12T17:54:10.070Z,64.20
2022-11-12T17:56:55.428Z,64.10
2022-11-12T17:59:40.995Z,64.50
2022-11-12T18:02:26.408Z,64.20
2022-11-12T18:05:14.752Z,64.10
2022-11-12T18:08:00.450Z,64.00
2022-11-12T18:10:45.999Z,64.20
2022-11-12T18:13:32.799Z,64.50
2022-11-12T18:16:23.833Z,64.40
2022-11-12T18:19:12.857Z,64.10
2022-11-12T18:21:59.736Z,64.60
2022-11-12T18:24:47.860Z,65.00
2022-11-12T18:27:34.981Z,64.60
2022-11-12T18:30:23.302Z,64.50
2022-11-12T18:33:12.253Z,64.90
2022-11-12T18:36:10.746Z,64.80
2022-11-12T18:38:58.281Z,64.50
2022-11-12T18:41:47.932Z,64.40
2022-11-12T18:44:36.979Z,64.40
2022-11-12T18:47:23.009Z,64.40
2022-11-12T18:50:10.695Z,64.40
2022-11-12T18:52:58.863Z,64.60
2022-11-12T18:55:47.055Z,64.70
2022-11-12T18:58:52.685Z,64.70
2022-11-12T19:01:45.756Z,64.70
2022-11-12T19:04:33.077Z,65.00
2022-11-12T19:07:22.742Z,65.10
2022-11-12T19:10:14.749Z,64.80
2022-11-12T19:13:03.860Z,64.80
2022-11-12T19:15:51.756Z,64.90
2022-11-12T19:18:40.287Z,64.70
2022-11-12T19:21:28.439Z,64.70
2022-11-12T19:24:16.662Z,65.10
2022-11-12T19:27:02.184Z,64.80
2022-11-12T19:29:50.662Z,64.80
2022-11-12T19:32:39.252Z,64.90
2022-11-12T19:35:25.849Z,65.20
2022-11-12T19:38:15.381Z,65.10
2022-11-12T19:41:08.332Z,65.30
2022-11-12T19:43:56.022Z,65.30
2022-11-12T19:46:44.095Z,65.50
2022-11-12T19:49:29.767Z,65.80
2022-11-12T19:52:17.167Z,65.60
2022-11-12T19:55:02.789Z,65.90
2022-11-12T19:57:48.221Z,65.90
2022-11-12T20:00:37.374Z,65.80
2022-11-12T20:03:25.842Z,65.80
2022-11-12T20:06:19.450Z,65.80
2022-11-12T20:09:07.859Z,65.80
2022-11-12T20:11:56.402Z,65.50
2022-11-12T20:14:41.967Z,65.60
2022-11-12T20:17:40.591Z,65.50
2022-11-12T20:20:26.506Z,65.40
2022-11-12T20:23:13.611Z,65.40
2022-11-12T20:26:12.375Z,65.30
2022-11-12T20:28:58.787Z,65.30
2022-11-12T20:31:45.588Z,65.20
2022-11-12T20:34:34.156Z,65.40
2022-11-12T20:37:22.698Z,65.40
2022-11-12T20:40:08.615Z,65.50
2022-11-12T20:42:55.929Z,65.70
2022-11-12T20:45:44.258Z,65.90
2022-11-12T20:48:33.311Z,65.90
2022-11-12T20:51:26.066Z,66.00
2022-11-12T20:54:14.270Z,66.00
2022-11-12T20:57:03.034Z,65.90
2022-11-12T20:59:52.040Z,65.70
2022-11-12T21:02:37.741Z,65.50
2022-11-12T21:06:03.101Z,65.50
2022-11-12T21:08:54.146Z,66.30
2022-11-12T21:11:39.813Z,65.90
2022-11-12T21:14:28.325Z,65.80
2022-11-12T21:17:13.568Z,66.10
2022-11-12T21:19:59.705Z,66.10
2022-11-12T21:22:45.185Z,66.00
2022-11-12T21:25:30.557Z,66.30
2022-11-12T21:28:15.973Z,66.30
2022-11-12T21:31:11.898Z,66.20
2022-11-12T21:34:00.248Z,66.00
2022-11-12T21:36:45.873Z,66.10
2022-11-12T21:39:31.249Z,65.90
2022-11-12T21:42:16.715Z,65.80
2022-11-12T21:45:02.284Z,66.00
2022-11-12T21:47:47.682Z,66.50
2022-11-12T21:50:33.246Z,66.50
2022-11-12T21:53:21.465Z,66.20
2022-11-12T21:56:11.023Z,66.10
2022-11-12T21:59:00.583Z,66.70
2022-11-12T22:01:46.362Z,66.20
2022-11-12T22:04:32.272Z,66.20
2022-11-12T22:07:17.766Z,66.10
2022-11-12T22:10:03.462Z,66.30
2022-11-12T22:13:12.094Z,66.30
2022-11-12T22:15:54.848Z,66.20
2022-11-12T22:18:40.533Z,66.00
2022-11-12T22:21:27.983Z,66.10
2022-11-12T22:24:20.866Z,66.10
2022-11-12T22:27:07.359Z,66.00
2022-11-12T22:29:53.580Z,66.00
2022-11-12T22:32:42.421Z,65.90
2022-11-12T22:35:29.381Z,66.10
2022-11-12T22:38:17.318Z,66.30
2022-11-12T22:41:18.012Z,66.40
2022-11-12T22:44:09.822Z,66.40
2022-11-12T22:50:03.672Z,66.30
2022-11-12T22:52:50.586Z,66.70
2022-11-12T22:55:39.899Z,66.30
2022-11-12T22:58:29.107Z,66.50
2022-11-12T23:01:28.563Z,66.50
2022-11-12T23:04:16.676Z,66.00
2022-11-12T23:07:41.375Z,66.00
2022-11-12T23:22:07.548Z,66.20
2022-11-12T23:25:14.925Z,66.60
2022-11-12T23:32:08.207Z,66.10
2022-11-12T23:38:37.297Z,66.30
2022-11-12T23:41:25.831Z,66.10
2022-11-12T23:44:11.604Z,66.30
2022-11-12T23:55:06.010Z,66.50
2022-11-12T23:58:13.138Z,66.50
